Time;durP1;ratioP1;P1;durP2;ratioP2;P2;SDS_P1;SDS_P2;PMS_P1;PMS_P2;Temp;Humidity;BMP_temperature;BMP_pressure;BME280_temperature;BME280_humidity;BME280_pressure;Samples;Min_cycle;Max_cycle;Signal;HPM_P1;HPM_P2
2022/11/14 00:03:12;;;;;;;8.40;4.32;;;;;;;2.62;82.25;100781.78;5008454;28;20108;-78
2022/11/14 00:06:35;;;;;;;12.98;4.50;;;;;;;2.39;82.22;100788.09;5009700;28;20119;-77
2022/11/14 00:09:57;;;;;;;5.38;3.85;;;;;;;2.51;82.69;100781.91;5008302;28;20061;-78
2022/11/14 00:13:20;;;;;;;12.30;4.07;;;;;;;2.25;83.63;100785.72;5009063;28;20615;-78
2022/11/14 00:16:41;;;;;;;10.70;4.88;;;;;;;2.48;82.70;100780.22;5008264;28;20073;-77
2022/11/14 00:20:05;;;;;;;8.50;4.45;;;;;;;2.26;83.51;100784.00;5008914;28;20044;-76
2022/11/14 00:23:28;;;;;;;8.85;4.18;;;;;;;2.15;83.47;100780.72;5011924;28;20045;-76
2022/11/14 00:26:49;;;;;;;8.77;4.65;;;;;;;2.42;83.02;100782.91;5012188;28;20044;-76
2022/11/14 00:30:12;;;;;;;22.42;11.93;;;;;;;2.51;82.23;100767.28;5013186;28;20076;-76
2022/11/14 00:33:34;;;;;;;24.38;12.60;;;;;;;2.15;83.30;100762.66;4992622;28;20128;-76
2022/11/14 00:36:56;;;;;;;13.95;8.68;;;;;;;2.46;82.58;100753.59;4992975;28;20048;-77
2022/11/14 00:40:18;;;;;;;22.50;13.93;;;;;;;2.43;81.96;100757.97;5009860;28;20100;-77
2022/11/14 00:43:40;;;;;;;13.93;7.03;;;;;;;2.20;83.44;100760.84;5011967;28;20044;-77
2022/11/14 00:47:02;;;;;;;8.88;6.13;;;;;;;2.36;82.43;100746.84;5012146;28;20176;-76
2022/11/14 00:50:24;;;;;;;6.28;3.83;;;;;;;2.07;83.89;100755.91;5012276;28;20049;-76
2022/11/14 00:53:45;;;;;;;26.33;14.43;;;;;;;2.33;82.78;100746.94;5012284;28;20045;-76
2022/11/14 00:57:08;;;;;;;9.43;7.22;;;;;;;2.44;82.71;100750.19;5011711;28;20048;-76
2022/11/14 01:00:29;;;;;;;7.07;5.50;;;;;;;2.24;82.76;100747.91;5011269;28;20120;-76
2022/11/14 01:03:52;;;;;;;8.88;6.72;;;;;;;2.09;83.28;100745.53;5012303;28;20389;-76
2022/11/14 01:07:13;;;;;;;10.68;8.45;;;;;;;2.24;83.48;100736.75;5011605;28;20132;-76
2022/11/14 01:10:45;;;;;;;11.70;7.53;;;;;;;2.22;83.13;100736.75;5012465;28;20048;-76
2022/11/14 01:14:07;;;;;;;9.18;6.10;;;;;;;2.20;82.95;100730.78;5011029;28;20055;-76
2022/11/14 01:17:29;;;;;;;8.50;6.40;;;;;;;2.00;84.10;100735.34;5012076;28;20141;-76
2022/11/14 01:20:52;;;;;;;7.53;4.47;;;;;;;1.99;83.74;100738.81;5010777;28;20061;-76
2022/11/14 01:24:13;;;;;;;23.02;4.40;;;;;;;2.16;83.77;100723.94;5012135;28;20108;-76
2022/11/14 01:27:35;;;;;;;5.55;4.07;;;;;;;2.21;83.40;100724.72;5011181;28;20091;-76
2022/11/14 01:31:14;;;;;;;5.30;3.60;;;;;;;2.31;82.84;100728.03;5011731;28;20151;-76
2022/11/14 01:34:36;;;;;;;5.63;3.50;;;;;;;2.31;82.65;100722.88;5011485;28;20056;-76
2022/11/14 01:38:02;;;;;;;11.18;4.15;;;;;;;2.20;83.28;100711.84;5011396;28;20068;-76
2022/11/14 01:41:24;;;;;;;7.30;4.18;;;;;;;2.16;83.62;100708.47;5011152;28;20672;-76
2022/11/14 01:44:51;;;;;;;10.13;3.53;;;;;;;2.15;83.45;100705.91;4991716;28;20104;-76
2022/11/14 01:48:38;;;;;;;7.57;3.92;;;;;;;2.32;82.82;100703.91;4991469;28;20045;-76
2022/11/14 01:52:12;;;;;;;16.65;3.83;;;;;;;2.09;83.45;100693.94;4992059;28;20050;-75
2022/11/14 01:55:34;;;;;;;8.65;3.60;;;;;;;2.20;82.82;100688.63;4991322;28;20139;-76
2022/11/14 01:59:04;;;;;;;6.40;3.78;;;;;;;2.30;82.85;100678.16;4991393;28;20053;-76
2022/11/14 02:02:26;;;;;;;6.57;4.20;;;;;;;2.27;82.11;100661.88;4991737;28;20052;-76
2022/11/14 02:05:49;;;;;;;6.00;4.20;;;;;;;2.23;82.38;100670.50;4991058;28;20033;-76
2022/11/14 02:09:12;;;;;;;5.85;3.95;;;;;;;2.17;82.46;100662.88;4998572;28;20045;-76
2022/11/14 02:12:34;;;;;;;5.68;3.72;;;;;;;2.20;82.78;100662.81;5010051;28;20104;-76
2022/11/14 02:20:52;;;;;;;4.30;3.10;;;;;;;2.32;82.06;100639.41;4991829;28;20048;-76
2022/11/14 02:24:14;;;;;;;9.70;3.95;;;;;;;2.29;81.97;100629.13;4992061;28;20054;-76
2022/11/14 02:27:38;;;;;;;6.35;3.72;;;;;;;2.17;81.98;100631.91;4992818;28;20117;-76
2022/11/14 02:31:00;;;;;;;5.55;3.47;;;;;;;2.07;81.92;100641.53;4993261;28;20040;-76
2022/11/14 02:34:21;;;;;;;6.65;4.60;;;;;;;1.88;82.78;100638.38;4993364;28;20324;-76
2022/11/14 02:37:43;;;;;;;8.93;3.95;;;;;;;1.83;82.70;100645.34;4993387;28;20409;-76
2022/11/14 02:41:05;;;;;;;6.95;4.85;;;;;;;1.98;82.33;100628.78;4993500;28;20045;-75
2022/11/14 02:44:26;;;;;;;6.90;3.97;;;;;;;1.91;83.41;100635.75;4993168;28;20077;-76
2022/11/14 02:47:49;;;;;;;4.78;3.25;;;;;;;1.81;84.16;100634.19;4992520;28;20105;-76
2022/11/14 02:51:11;;;;;;;5.05;3.17;;;;;;;1.90;83.69;100628.06;4992840;28;20560;-75
2022/11/14 02:54:33;;;;;;;9.77;2.90;;;;;;;1.94;83.44;100630.53;4992618;28;20049;-75
2022/11/14 02:57:54;;;;;;;9.77;3.25;;;;;;;1.71;84.33;100622.31;4993280;28;20169;-75
2022/11/14 03:01:16;;;;;;;12.40;3.70;;;;;;;1.91;84.40;100624.59;4992994;28;20398;-76
2022/11/14 03:04:38;;;;;;;5.32;3.33;;;;;;;1.85;84.49;100615.22;4992995;28;20457;-76
2022/11/14 03:08:00;;;;;;;10.30;3.58;;;;;;;1.92;83.96;100613.41;4992826;28;20081;-76
2022/11/14 03:11:22;;;;;;;11.65;3.08;;;;;;;1.84;83.61;100604.06;4993020;28;20089;-76
2022/11/14 03:14:44;;;;;;;8.75;3.30;;;;;;;2.05;83.22;100608.03;4992367;28;20401;-76
2022/11/14 03:18:05;;;;;;;4.88;3.63;;;;;;;2.12;82.01;100613.94;4993260;28;20140;-76
2022/11/14 03:21:27;;;;;;;5.97;3.80;;;;;;;2.00;83.57;100609.81;4992527;28;20520;-76
2022/11/14 03:24:49;;;;;;;10.63;3.15;;;;;;;1.60;84.01;100615.59;4992377;28;20053;-75
2022/11/14 03:28:11;;;;;;;15.40;3.20;;;;;;;1.58;84.12;100607.00;4993006;28;20057;-76
2022/11/14 03:31:32;;;;;;;4.63;3.10;;;;;;;1.52;84.82;100601.94;4992278;28;20053;-76
2022/11/14 03:34:54;;;;;;;6.82;2.70;;;;;;;1.60;84.29;100600.13;4992788;28;20101;-76
2022/11/14 03:38:16;;;;;;;6.15;3.63;;;;;;;1.91;83.34;100596.22;4992687;28;20049;-76
2022/11/14 03:41:39;;;;;;;4.40;3.13;;;;;;;1.92;83.15;100598.78;4992450;28;20097;-76
2022/11/14 03:45:01;;;;;;;5.57;3.30;;;;;;;1.90;83.26;100597.09;4992469;28;20045;-76
2022/11/14 03:48:23;;;;;;;4.07;2.88;;;;;;;1.92;82.96;100600.53;4992504;28;20112;-76
2022/11/14 03:51:45;;;;;;;6.95;3.10;;;;;;;1.73;82.19;100594.78;4992397;28;20134;-76
2022/11/14 03:55:07;;;;;;;11.30;3.75;;;;;;;1.69;82.73;100593.13;4992758;28;20381;-76
2022/11/14 03:58:29;;;;;;;7.07;3.30;;;;;;;1.67;83.23;100594.88;4995377;28;20532;-76
2022/11/14 04:01:51;;;;;;;5.00;3.10;;;;;;;1.59;82.55;100598.41;4996024;28;20469;-76
2022/11/14 04:05:13;;;;;;;4.78;3.33;;;;;;;1.67;83.29;100592.31;4996082;28;20104;-76
2022/11/14 04:08:34;;;;;;;6.93;3.30;;;;;;;1.67;83.63;100585.41;4996060;28;20513;-76
2022/11/14 04:11:56;;;;;;;4.88;3.10;;;;;;;1.60;83.38;100594.13;4996062;28;20054;-76
2022/11/14 04:15:19;;;;;;;6.00;2.97;;;;;;;1.71;82.84;100587.06;4996310;28;20544;-76
2022/11/14 04:18:40;;;;;;;4.25;2.80;;;;;;;1.62;83.30;100594.94;4995804;28;20045;-76
2022/11/14 04:22:02;;;;;;;4.50;3.00;;;;;;;1.65;83.12;100592.31;4995124;28;20360;-76
2022/11/14 04:25:25;;;;;;;3.95;2.97;;;;;;;1.66;82.84;100588.00;4995690;28;20045;-76
2022/11/14 04:28:46;;;;;;;4.40;2.92;;;;;;;1.63;82.39;100579.47;4995842;28;20132;-76
2022/11/14 04:32:08;;;;;;;7.00;3.13;;;;;;;1.63;82.62;100584.63;4995735;28;20049;-76
2022/11/14 04:35:30;;;;;;;6.10;2.95;;;;;;;1.80;82.42;100586.09;4993508;28;20049;-76
2022/11/14 04:38:53;;;;;;;4.85;3.08;;;;;;;1.66;82.63;100581.16;5005493;28;20091;-75
2022/11/14 04:42:15;;;;;;;5.13;3.10;;;;;;;1.86;81.41;100586.84;4990297;28;20081;-77
2022/11/14 04:45:37;;;;;;;6.43;3.38;;;;;;;1.71;81.21;100581.06;4994715;28;20048;-76
2022/11/14 04:48:59;;;;;;;4.85;3.50;;;;;;;1.62;82.50;100580.31;5010400;28;20080;-77
2022/11/14 04:52:20;;;;;;;5.00;3.33;;;;;;;1.92;81.72;100575.59;4993709;28;20065;-75
2022/11/14 04:55:44;;;;;;;5.68;3.92;;;;;;;1.82;81.46;100574.03;4998647;28;20567;-75
2022/11/14 04:59:06;;;;;;;5.95;4.47;;;;;;;1.75;82.00;100575.81;4999575;28;20044;-75
2022/11/14 05:02:30;;;;;;;4.85;3.55;;;;;;;1.74;82.45;100570.72;5004677;28;20095;-75
2022/11/14 05:05:52;;;;;;;7.50;3.95;;;;;;;1.80;82.97;100566.31;5011125;28;20409;-75
2022/11/14 05:09:14;;;;;;;7.13;4.63;;;;;;;1.91;82.50;100563.56;4989570;28;20045;-75
2022/11/14 05:12:35;;;;;;;6.72;4.28;;;;;;;1.97;82.63;100562.59;4990319;28;20679;-75
2022/11/14 05:15:59;;;;;;;4.93;3.17;;;;;;;2.06;82.44;100562.47;4990194;28;20556;-76
2022/11/14 05:19:20;;;;;;;6.63;4.05;;;;;;;2.17;82.55;100555.41;4995920;28;20128;-75
2022/11/14 05:22:43;;;;;;;7.70;3.58;;;;;;;2.19;82.69;100547.63;5010600;28;20076;-75
2022/11/14 05:26:08;;;;;;;7.50;3.63;;;;;;;2.20;82.84;100554.47;5009706;28;20412;-75
2022/11/14 05:29:30;;;;;;;4.82;2.92;;;;;;;2.22;82.86;100550.16;5010457;28;20044;-76
2022/11/14 05:32:52;;;;;;;5.85;3.00;;;;;;;2.33;82.42;100555.97;4989733;28;20077;-76
2022/11/14 05:36:16;;;;;;;5.47;3.17;;;;;;;2.39;82.66;100562.75;4990693;28;20073;-75
2022/11/14 05:39:38;;;;;;;4.43;3.47;;;;;;;2.34;82.82;100557.69;4989977;28;20077;-75
2022/11/14 05:43:00;;;;;;;5.68;3.17;;;;;;;2.38;82.55;100561.91;4997134;28;20437;-76
2022/11/14 05:46:23;;;;;;;6.38;2.90;;;;;;;2.50;82.06;100559.09;4998032;28;20045;-76
2022/11/14 05:49:45;;;;;;;8.27;3.65;;;;;;;2.41;82.38;100564.41;5007660;28;20045;-75
2022/11/14 05:53:07;;;;;;;6.43;3.55;;;;;;;2.65;82.11;100559.66;5010707;28;20045;-75
2022/11/14 05:56:29;;;;;;;5.20;3.88;;;;;;;2.57;82.48;100565.00;5009977;28;20132;-76
2022/11/14 05:59:51;;;;;;;5.65;3.17;;;;;;;2.40;83.70;100560.16;5010846;28;20108;-75
2022/11/14 06:03:13;;;;;;;6.68;3.20;;;;;;;2.50;83.39;100563.41;5008722;28;20137;-76
2022/11/14 06:06:35;;;;;;;5.28;2.92;;;;;;;2.54;83.11;100555.56;5008431;28;20045;-75
2022/11/14 06:09:57;;;;;;;5.55;3.35;;;;;;;2.56;83.30;100558.97;5008267;28;20126;-75
2022/11/14 06:13:19;;;;;;;7.57;3.72;;;;;;;2.51;83.36;100555.63;5008467;28;20076;-75
2022/11/14 06:16:41;;;;;;;6.45;3.50;;;;;;;2.53;83.45;100543.56;5008912;28;20129;-75
2022/11/14 06:20:05;;;;;;;5.47;2.85;;;;;;;2.65;83.42;100521.81;5006608;28;20099;-76
2022/11/14 06:23:28;;;;;;;5.23;3.70;;;;;;;2.62;83.75;100526.19;4990535;28;20105;-75
2022/11/14 06:26:50;;;;;;;6.18;3.95;;;;;;;2.58;83.91;100538.28;4989821;28;20312;-76
2022/11/14 06:30:12;;;;;;;11.40;6.18;;;;;;;2.39;84.76;100544.69;4993874;28;20045;-75
2022/11/14 06:33:36;;;;;;;8.18;5.47;;;;;;;2.54;84.57;100550.41;5009740;28;20053;-75
2022/11/14 06:36:58;;;;;;;6.80;5.07;;;;;;;2.49;85.23;100557.41;5008236;28;20112;-75
2022/11/14 06:40:20;;;;;;;5.53;3.88;;;;;;;2.71;84.64;100551.81;5009061;28;20316;-75
2022/11/14 06:43:44;;;;;;;8.98;3.80;;;;;;;2.55;85.41;100546.09;4992828;28;20049;-75
2022/11/14 06:47:06;;;;;;;9.55;3.13;;;;;;;2.62;85.06;100544.28;4999998;28;20077;-75
2022/11/14 06:50:28;;;;;;;9.65;4.30;;;;;;;2.93;83.26;100537.59;4988298;28;20069;-75
2022/11/14 06:53:49;;;;;;;8.07;5.10;;;;;;;2.86;84.24;100530.84;4989315;28;20523;-75
2022/11/14 06:57:11;;;;;;;11.70;6.55;;;;;;;2.78;84.80;100537.94;4988761;28;20467;-76
2022/11/14 07:00:33;;;;;;;13.20;7.07;;;;;;;2.81;84.96;100527.53;4987778;28;20084;-76
2022/11/14 07:03:59;;;;;;;12.98;7.72;;;;;;;2.82;85.15;100536.97;4990115;28;20135;-75
2022/11/14 07:07:21;;;;;;;6.28;4.40;;;;;;;3.06;84.64;100532.16;5006246;28;20181;-76
2022/11/14 07:10:44;;;;;;;9.88;3.75;;;;;;;2.95;85.07;100525.50;5009568;28;20096;-76
2022/11/14 07:14:06;;;;;;;7.38;3.70;;;;;;;3.03;84.90;100531.38;4998590;28;20100;-77
2022/11/14 07:17:27;;;;;;;5.25;3.45;;;;;;;2.67;86.77;100527.78;4993273;28;20068;-76
2022/11/14 07:20:55;;;;;;;4.32;3.03;;;;;;;2.89;85.63;100530.78;5010123;28;20044;-75
2022/11/14 07:24:17;;;;;;;5.20;3.38;;;;;;;3.11;84.45;100531.19;4990196;28;20056;-75
2022/11/14 07:27:39;;;;;;;5.25;3.40;;;;;;;3.03;85.29;100523.63;4989801;28;20451;-75
2022/11/14 07:31:06;;;;;;;5.47;3.33;;;;;;;3.16;84.99;100513.00;5007030;28;20087;-75
2022/11/14 07:34:27;;;;;;;4.45;3.22;;;;;;;3.28;85.20;100504.97;5013207;28;20044;-75
2022/11/14 07:37:59;;;;;;;10.30;3.58;;;;;;;3.47;84.74;100503.66;5013139;28;20049;-74
2022/11/14 07:41:24;;;;;;;4.20;3.00;;;;;;;3.53;84.01;100501.84;4998422;28;20095;-76
2022/11/14 07:44:47;;;;;;;6.22;4.10;;;;;;;3.49;84.64;100509.66;5013016;28;20057;-75
2022/11/14 07:48:09;;;;;;;4.43;3.42;;;;;;;3.45;84.70;100502.88;5013117;28;20092;-76
2022/11/14 07:51:31;;;;;;;4.63;3.30;;;;;;;3.43;84.85;100502.03;5012868;28;20049;-75
2022/11/14 07:54:53;;;;;;;5.20;3.38;;;;;;;3.49;85.08;100512.25;5012952;28;20049;-75
2022/11/14 07:58:15;;;;;;;4.50;3.42;;;;;;;3.42;86.40;100509.84;5012693;28;20603;-75
2022/11/14 08:01:37;;;;;;;4.60;3.30;;;;;;;3.64;85.14;100507.63;5013513;28;20213;-74
2022/11/14 08:05:00;;;;;;;5.68;3.95;;;;;;;3.69;85.10;100519.53;5012253;28;20120;-74
2022/11/14 08:08:21;;;;;;;4.70;3.45;;;;;;;3.80;85.59;100526.16;5012757;28;20560;-74
2022/11/14 08:11:49;;;;;;;5.72;3.45;;;;;;;3.68;86.94;100538.53;5012692;28;20044;-75
2022/11/14 08:15:12;;;;;;;6.53;3.97;;;;;;;3.70;86.57;100530.72;5013226;28;20076;-74
2022/11/14 08:19:07;;;;;;;5.97;3.28;;;;;;;3.71;86.44;100530.69;4993010;28;20045;-75
2022/11/14 08:22:30;;;;;;;4.82;3.38;;;;;;;3.43;87.55;100517.56;4993120;28;20092;-75
2022/11/14 08:25:51;;;;;;;6.43;3.38;;;;;;;3.71;86.55;100516.91;4992619;28;20053;-73
2022/11/14 08:29:13;;;;;;;14.93;10.05;;;;;;;3.54;88.05;100506.09;5001150;28;20052;-74
2022/11/14 08:32:36;;;;;;;6.00;4.57;;;;;;;3.59;88.38;100515.47;5013197;28;20061;-75
2022/11/14 08:36:05;;;;;;;6.03;3.83;;;;;;;3.93;87.08;100517.25;5010930;28;20041;-74
2022/11/14 08:39:27;;;;;;;6.22;4.13;;;;;;;4.03;86.88;100512.69;5010610;28;20048;-74
2022/11/14 08:42:48;;;;;;;7.68;4.00;;;;;;;3.93;87.67;100512.91;4989741;28;20124;-75
2022/11/14 08:46:10;;;;;;;7.50;4.05;;;;;;;4.11;86.76;100518.50;4991452;28;20085;-74
2022/11/14 08:49:32;;;;;;;7.20;4.60;;;;;;;4.00;87.55;100523.09;4991105;28;20105;-75
2022/11/14 08:52:54;;;;;;;4.70;3.17;;;;;;;4.12;87.81;100522.81;4996731;28;20080;-75
2022/11/14 08:56:15;;;;;;;6.18;3.58;;;;;;;3.97;88.26;100514.53;4991310;28;20104;-74
2022/11/14 08:59:38;;;;;;;5.80;3.75;;;;;;;4.15;88.36;100513.22;4990461;28;20089;-74
2022/11/14 09:03:00;;;;;;;6.10;3.90;;;;;;;3.88;89.63;100514.75;4991028;28;20484;-75
2022/11/14 09:06:59;;;;;;;8.38;4.25;;;;;;;4.20;88.89;100523.44;4988397;28;20092;-75
2022/11/14 09:10:21;;;;;;;6.03;4.63;;;;;;;4.18;89.25;100520.06;4989102;28;20053;-74
2022/11/14 09:13:43;;;;;;;6.40;3.97;;;;;;;4.26;89.29;100520.69;4989663;28;20077;-75
2022/11/14 09:17:05;;;;;;;6.50;4.25;;;;;;;4.39;88.68;100511.69;5000488;28;20048;-75
2022/11/14 09:20:29;;;;;;;5.95;4.30;;;;;;;4.41;88.55;100516.84;5010126;28;20095;-75
2022/11/14 09:29:22;;;;;;;6.38;4.35;;;;;;;4.57;89.14;100527.66;4983056;28;20095;-75
2022/11/14 09:43:15;;;;;;;7.97;4.60;;;;;;;4.59;89.63;100523.25;5005461;28;20405;-74
2022/11/14 09:47:00;;;;;;;8.90;6.43;;;;;;;4.73;89.92;100535.84;5010114;28;20069;-75
2022/11/14 09:50:26;;;;;;;10.27;6.07;;;;;;;4.84;89.19;100532.03;4989663;28;20121;-74
2022/11/14 09:53:53;;;;;;;11.02;8.57;;;;;;;4.88;89.70;100530.19;5000947;28;20064;-75
2022/11/14 09:57:18;;;;;;;11.55;8.70;;;;;;;4.82;90.45;100525.22;5009263;28;20049;-75
2022/11/14 10:00:53;;;;;;;13.60;8.80;;;;;;;4.87;91.39;100523.34;5008097;28;20488;-74
2022/11/14 10:04:53;;;;;;;13.38;9.65;;;;;;;4.95;90.76;100520.53;5007509;28;20116;-75
2022/11/14 10:08:30;;;;;;;11.27;8.98;;;;;;;4.87;92.46;100508.63;5007554;28;20104;-74
2022/11/14 10:12:14;;;;;;;20.15;15.18;;;;;;;4.86;92.30;100506.09;4988809;28;20092;-74
2022/11/14 10:16:09;;;;;;;29.15;22.13;;;;;;;4.97;93.22;100503.19;4989762;28;20189;-74
2022/11/14 10:20:00;;;;;;;22.55;14.80;;;;;;;4.88;93.38;100494.81;5003041;28;20124;-74
2022/11/14 10:23:53;;;;;;;17.17;13.07;;;;;;;5.05;93.24;100491.69;5009510;28;20049;-75
2022/11/14 10:37:40;;;;;;;15.82;11.40;;;;;;;5.32;96.09;100479.63;4978599;28;20112;-76
2022/11/14 10:41:11;;;;;;;16.98;11.73;;;;;;;5.51;94.26;100469.50;4998571;28;20187;-75
2022/11/14 10:44:41;;;;;;;20.85;14.25;;;;;;;5.51;94.99;100482.50;5008467;28;20132;-75
2022/11/14 10:48:20;;;;;;;20.08;14.13;;;;;;;5.69;94.73;100483.66;5008744;28;20053;-75
2022/11/14 10:52:19;;;;;;;21.55;13.88;;;;;;;6.07;94.26;100485.91;4994007;28;20045;-78
2022/11/14 10:55:41;;;;;;;18.80;15.07;;;;;;;6.34;93.72;100471.09;5008998;28;20080;-76
2022/11/14 10:59:03;;;;;;;21.85;15.88;;;;;;;6.37;94.49;100463.19;5010530;28;20133;-75
2022/11/14 11:02:25;;;;;;;21.02;15.65;;;;;;;6.43;93.75;100466.41;5009263;28;20402;-75
2022/11/14 11:06:24;;;;;;;22.35;16.08;;;;;;;6.41;92.45;100456.97;4988883;28;20044;-75
2022/11/14 11:13:51;;;;;;;19.92;14.23;;;;;;;6.48;96.00;100455.88;4989991;28;20081;-78
2022/11/14 11:17:52;;;;;;;22.27;15.75;;;;;;;6.46;95.82;100458.50;5002575;28;20045;-77
2022/11/14 11:25:39;;;;;;;22.88;16.73;;;;;;;6.62;96.00;100430.22;5009140;28;20096;-76
2022/11/14 11:29:10;;;;;;;26.30;19.30;;;;;;;6.67;93.62;100433.50;5009647;28;20061;-78
2022/11/14 11:32:35;;;;;;;23.45;18.05;;;;;;;6.74;92.16;100428.91;5010254;28;20400;-78
2022/11/14 11:36:10;;;;;;;31.20;21.38;;;;;;;6.73;91.23;100422.88;5009123;28;20096;-78
2022/11/14 11:39:41;;;;;;;27.58;21.17;;;;;;;6.94;92.03;100417.75;5009177;28;20045;-78
2022/11/14 11:43:20;;;;;;;22.70;18.67;;;;;;;7.16;91.41;100410.78;5010363;28;20591;-78
2022/11/14 11:46:53;;;;;;;24.25;17.45;;;;;;;7.14;91.87;100422.16;5009271;28;20077;-78
2022/11/14 11:50:19;;;;;;;23.27;17.90;;;;;;;7.06;90.92;100421.63;5009335;28;20464;-79
2022/11/14 11:53:56;;;;;;;23.25;17.45;;;;;;;7.09;91.01;100422.34;4990530;28;20125;-79
2022/11/14 11:57:23;;;;;;;22.13;16.88;;;;;;;7.17;91.01;100402.09;4990456;28;20057;-79
2022/11/14 12:00:45;;;;;;;22.95;18.05;;;;;;;7.27;90.56;100401.72;4988337;28;20088;-79
2022/11/14 12:04:07;;;;;;;38.15;27.75;;;;;;;7.05;89.38;100391.31;4997807;28;20048;-79
2022/11/14 12:07:35;;;;;;;147.02;105.10;;;;;;;7.06;89.60;100393.03;5008877;28;20396;-79
2022/11/14 12:11:01;;;;;;;35.25;26.73;;;;;;;7.15;89.47;100403.06;5008988;28;20069;-79
2022/11/14 12:14:50;;;;;;;21.92;17.13;;;;;;;7.23;89.00;100391.44;5009238;28;20111;-79
2022/11/14 12:18:30;;;;;;;21.42;16.08;;;;;;;7.38;88.96;100383.94;4999980;28;20049;-79
2022/11/14 12:22:24;;;;;;;18.98;14.43;;;;;;;7.45;89.13;100374.94;4993663;28;20045;-79
2022/11/14 12:30:21;;;;;;;18.73;13.40;;;;;;;7.64;88.95;100360.25;4992962;28;20057;-79
2022/11/14 12:34:01;;;;;;;15.90;13.55;;;;;;;7.60;88.66;100352.66;4992569;28;20053;-79
2022/11/14 12:37:44;;;;;;;16.90;12.73;;;;;;;7.57;88.58;100360.59;4992226;28;20531;-79
2022/11/14 12:41:06;;;;;;;16.73;12.68;;;;;;;7.64;88.48;100365.47;5010329;28;20036;-79
2022/11/14 12:44:30;;;;;;;14.18;11.77;;;;;;;7.61;88.24;100356.94;5012074;28;20535;-79
2022/11/14 12:48:27;;;;;;;18.38;13.05;;;;;;;7.60;88.22;100343.09;4991383;28;20041;-79
2022/11/14 12:51:53;;;;;;;15.45;12.02;;;;;;;7.59;88.65;100333.56;4999976;28;20511;-79
2022/11/14 12:55:24;;;;;;;15.45;11.25;;;;;;;7.64;88.43;100330.78;5011896;28;20091;-78
2022/11/14 12:59:09;;;;;;;17.88;12.10;;;;;;;7.74;87.72;100336.44;5011251;28;20099;-78
2022/11/14 13:02:40;;;;;;;;;;;;;;;7.73;87.71;100345.16;5012595;28;20044;-78
2022/11/14 13:06:29;;;;;;;16.80;12.43;;;;;;;7.67;88.04;100341.06;4992520;28;19924;-78
2022/11/14 13:10:16;;;;;;;17.73;12.20;;;;;;;7.69;87.60;100334.06;4991876;28;20069;-78
2022/11/14 13:21:45;;;;;;;16.42;14.13;;;;;;;7.62;87.81;100310.03;4990444;28;20049;-79
2022/11/14 13:25:33;;;;;;;14.82;12.90;;;;;;;7.63;88.21;100305.69;4990250;28;20053;-79
2022/11/14 13:28:56;;;;;;;14.95;12.25;;;;;;;7.63;88.67;100309.13;4990259;28;20213;-79
2022/11/14 13:32:40;;;;;;;14.05;12.07;;;;;;;7.62;88.47;100298.78;4991840;28;20495;-78
2022/11/14 13:36:03;;;;;;;15.70;12.68;;;;;;;7.64;89.22;100297.81;4992486;28;20060;-79
2022/11/14 13:39:36;;;;;;;15.30;12.38;;;;;;;7.62;89.55;100294.41;5002166;28;20505;-79
2022/11/14 13:43:07;;;;;;;15.50;11.45;;;;;;;7.70;90.87;100301.91;4991287;28;20504;-79
2022/11/14 13:47:09;;;;;;;14.75;11.80;;;;;;;7.66;90.23;100290.78;4990645;28;20057;-78
2022/11/14 13:50:36;;;;;;;14.20;11.30;;;;;;;7.63;90.00;100288.31;4992315;28;20050;-79
2022/11/14 13:53:58;;;;;;;15.30;11.10;;;;;;;7.67;90.30;100287.25;4991347;28;20444;-79
2022/11/14 13:57:27;;;;;;;19.27;14.07;;;;;;;7.60;90.63;100295.41;4990428;28;20104;-79
2022/11/14 14:01:06;;;;;;;28.25;16.98;;;;;;;7.65;90.82;100296.88;4990083;28;20049;-79
2022/11/14 14:04:49;;;;;;;28.88;19.77;;;;;;;7.74;90.60;100294.78;5008415;28;20551;-80
2022/11/14 14:08:49;;;;;;;26.50;20.73;;;;;;;7.77;90.07;100289.47;4991284;28;20049;-79
2022/11/14 14:12:29;;;;;;;22.38;18.45;;;;;;;7.75;90.52;100288.66;4994977;28;20133;-79
2022/11/14 14:16:06;;;;;;;27.95;20.80;;;;;;;7.83;91.28;100278.78;4994872;28;20046;-78
2022/11/14 14:19:48;;;;;;;28.00;20.10;;;;;;;7.76;91.92;100279.97;4994685;28;20069;-79
2022/11/14 14:23:26;;;;;;;26.48;18.48;;;;;;;7.60;92.16;100285.00;4994522;28;20065;-78
2022/11/14 14:27:07;;;;;;;24.10;18.30;;;;;;;7.69;91.96;100269.00;4994186;28;20045;-78
2022/11/14 14:30:29;;;;;;;23.15;16.52;;;;;;;7.75;92.60;100267.84;4992983;28;20057;-77
2022/11/14 14:33:51;;;;;;;22.08;15.23;;;;;;;7.74;92.79;100271.38;4994081;28;20088;-76
2022/11/14 14:37:24;;;;;;;20.42;14.57;;;;;;;7.71;93.50;100261.09;4994133;28;20563;-77
2022/11/14 14:40:47;;;;;;;22.75;12.63;;;;;;;7.71;93.64;100266.31;4993545;28;20041;-75
2022/11/14 14:44:21;;;;;;;17.35;13.02;;;;;;;7.75;93.83;100252.22;4994140;28;20117;-76
2022/11/14 14:47:46;;;;;;;17.85;12.40;;;;;;;7.60;94.18;100246.81;4994170;28;20049;-75
2022/11/14 14:51:13;;;;;;;18.70;11.88;;;;;;;7.78;95.33;100259.91;4994049;28;20084;-76
2022/11/14 14:54:34;;;;;;;14.30;10.57;;;;;;;7.83;93.91;100250.16;4993782;28;20061;-75
2022/11/14 14:58:12;;;;;;;13.43;10.02;;;;;;;7.66;94.12;100251.75;4993491;28;20049;-76
2022/11/14 15:01:35;;;;;;;14.80;10.18;;;;;;;7.78;94.73;100244.28;4993258;28;20033;-76
2022/11/14 15:04:58;;;;;;;10.43;8.38;;;;;;;7.85;94.33;100240.53;4993432;28;20152;-76
2022/11/14 15:08:21;;;;;;;13.80;8.80;;;;;;;7.86;93.90;100227.41;4992969;28;20076;-76
2022/11/14 15:11:50;;;;;;;11.30;8.95;;;;;;;7.87;94.66;100233.47;4991988;28;20054;-77
2022/11/14 15:15:14;;;;;;;10.05;7.63;;;;;;;7.87;93.88;100243.88;4993080;28;20108;-76
2022/11/14 15:18:36;;;;;;;11.82;8.80;;;;;;;7.80;93.92;100239.88;4993109;28;20112;-76
2022/11/14 15:22:13;;;;;;;9.95;8.38;;;;;;;7.81;94.33;100231.13;4992884;28;20041;-77
2022/11/14 15:25:36;;;;;;;10.75;8.85;;;;;;;7.86;94.45;100227.41;4992445;28;20045;-77
2022/11/14 15:29:26;;;;;;;28.00;19.05;;;;;;;7.78;94.21;100226.06;5003630;28;20044;-80
2022/11/14 15:32:52;;;;;;;19.48;12.85;;;;;;;7.74;95.02;100216.72;4988698;28;20096;-82
2022/11/14 15:36:16;;;;;;;23.05;14.50;;;;;;;7.81;95.52;100220.72;5002902;28;20140;-81
2022/11/14 15:39:39;;;;;;;21.00;14.32;;;;;;;7.86;95.08;100213.56;5007571;28;20108;-82
2022/11/14 15:43:49;;;;;;;28.60;17.25;;;;;;;7.93;94.55;100215.81;5007598;28;20413;-81
2022/11/14 15:47:38;;;;;;;27.27;15.60;;;;;;;7.88;95.12;100216.91;5007583;28;20175;-79
2022/11/14 15:51:00;;;;;;;26.67;17.23;;;;;;;7.92;94.48;100213.28;5007390;28;20547;-78
2022/11/14 15:54:24;;;;;;;26.42;18.00;;;;;;;7.73;95.70;100215.88;5012158;28;20496;-77
2022/11/14 15:57:50;;;;;;;22.95;17.45;;;;;;;7.75;94.99;100211.44;5012562;28;20045;-78
2022/11/14 16:01:26;;;;;;;23.48;16.48;;;;;;;7.72;95.98;100206.38;5015624;28;20052;-78
2022/11/14 16:04:53;;;;;;;18.35;12.27;;;;;;;7.82;96.00;100212.88;5016582;28;20400;-78
2022/11/14 16:08:16;;;;;;;21.73;14.13;;;;;;;7.67;95.98;100211.78;5015528;28;20060;-80
2022/11/14 16:11:38;;;;;;;32.75;19.70;;;;;;;7.63;96.27;100212.84;5015994;28;20374;-80
2022/11/14 16:15:00;;;;;;;41.53;24.63;;;;;;;7.67;96.42;100218.75;5016249;28;20188;-77
2022/11/14 16:18:22;;;;;;;28.73;19.55;;;;;;;7.75;96.30;100221.00;5016630;28;20073;-78
2022/11/14 16:21:45;;;;;;;27.55;18.40;;;;;;;7.74;95.83;100216.72;5016568;28;20166;-77
2022/11/14 16:25:19;;;;;;;18.00;12.55;;;;;;;7.83;96.42;100219.75;5016277;28;20048;-77
2022/11/14 16:28:41;;;;;;;;;;;;;;;7.89;96.26;100218.63;5016975;28;20044;-77
2022/11/14 16:32:03;;;;;;;18.45;13.43;;;;;;;7.81;95.54;100213.75;5016554;28;19924;-77
2022/11/14 16:35:27;;;;;;;23.20;14.77;;;;;;;7.81;95.69;100223.31;5015961;28;20175;-77
2022/11/14 16:38:49;;;;;;;20.35;14.30;;;;;;;7.74;96.20;100219.31;5016220;28;20044;-77
2022/11/14 16:42:11;;;;;;;18.95;14.00;;;;;;;7.71;96.51;100225.50;5016358;28;20111;-77
2022/11/14 16:45:38;;;;;;;17.67;13.25;;;;;;;7.65;97.00;100226.63;5016000;28;20045;-78
2022/11/14 16:49:01;;;;;;;21.20;14.30;;;;;;;7.56;97.45;100216.66;5015882;28;20045;-79
2022/11/14 16:52:23;;;;;;;17.67;13.15;;;;;;;7.51;97.60;100225.56;5014897;28;20069;-78
2022/11/14 16:55:45;;;;;;;14.02;10.57;;;;;;;7.55;98.08;100237.50;5015861;28;20560;-78
2022/11/14 16:59:09;;;;;;;16.73;11.02;;;;;;;7.59;97.56;100241.66;5015722;28;20476;-80